createdAt,value
2023-04-22T00:01:02.261Z,100949.72
2023-04-22T00:04:06.871Z,100961.31
2023-04-22T00:07:13.537Z,100929.75
2023-04-22T00:10:26.922Z,100957.16
2023-04-22T00:13:31.748Z,100967.31
2023-04-22T00:16:36.545Z,100950.13
2023-04-22T00:19:41.777Z,100957.31
2023-04-22T00:22:46.415Z,100968.50
2023-04-22T00:25:50.617Z,100966.91
2023-04-22T00:28:55.133Z,100952.59
2023-04-22T00:31:59.756Z,100970.38
2023-04-22T00:35:04.260Z,100933.88
2023-04-22T00:38:09.198Z,100948.41
2023-04-22T00:41:14.207Z,100968.47
2023-04-22T00:44:19.726Z,100948.34
2023-04-22T00:47:27.586Z,100957.59
2023-04-22T00:50:32.120Z,100958.72
2023-04-22T00:53:37.018Z,100963.34
2023-04-22T00:56:41.898Z,100954.91
2023-04-22T00:59:46.490Z,100975.41
2023-04-22T01:02:50.888Z,100975.34
2023-04-22T01:05:55.484Z,100970.72
2023-04-22T01:09:00.702Z,100963.66
2023-04-22T01:12:05.384Z,100959.81
2023-04-22T01:15:10.506Z,100956.66
2023-04-22T01:18:15.528Z,100964.56
2023-04-22T01:21:20.492Z,100947.34
2023-04-22T01:24:24.580Z,100952.63
2023-04-22T01:27:29.618Z,100954.75
2023-04-22T01:30:34.719Z,100951.16
2023-04-22T01:33:40.119Z,100963.88
2023-04-22T01:36:45.959Z,100954.28
2023-04-22T01:39:51.615Z,100960.19
2023-04-22T01:42:56.265Z,100951.69
2023-04-22T01:46:03.468Z,100966.59
2023-04-22T01:49:08.484Z,100954.34
2023-04-22T01:52:12.652Z,100948.56
2023-04-22T01:55:17.363Z,100951.50
2023-04-22T01:58:21.873Z,100922.59
2023-04-22T02:01:27.086Z,100948.50
2023-04-22T02:04:31.593Z,100911.00
2023-04-22T02:07:37.309Z,100940.09
2023-04-22T02:10:41.587Z,100944.50
2023-04-22T02:13:46.315Z,100950.50
2023-04-22T02:16:52.654Z,100914.53
2023-04-22T02:19:56.878Z,100938.06
2023-04-22T02:23:01.526Z,100924.78
2023-04-22T02:26:06.751Z,100918.91
2023-04-22T02:29:12.048Z,100918.78
2023-04-22T02:32:18.256Z,100878.53
2023-04-22T02:35:23.051Z,100923.47
2023-04-22T02:38:27.827Z,100929.34
2023-04-22T02:41:32.220Z,100915.38
2023-04-22T02:44:36.738Z,100905.84
2023-04-22T02:47:41.267Z,100924.97
2023-04-22T02:50:45.852Z,100904.06
2023-04-22T02:53:50.563Z,100906.94
2023-04-22T02:56:55.130Z,100911.09
2023-04-22T02:59:59.731Z,100898.81
2023-04-22T03:03:04.783Z,100916.13
2023-04-22T03:06:11.112Z,100901.38
2023-04-22T03:09:15.424Z,100897.06
2023-04-22T03:12:19.942Z,100919.28
2023-04-22T03:15:23.996Z,100889.00
2023-04-22T03:18:28.305Z,100903.53
2023-04-22T03:21:33.687Z,100897.88
2023-04-22T03:24:38.738Z,100895.16
2023-04-22T03:27:46.214Z,100878.75
2023-04-22T03:30:50.890Z,100889.84
2023-04-22T03:33:55.724Z,100893.69
2023-04-22T03:37:06.532Z,100864.28
2023-04-22T03:40:13.561Z,100886.19
2023-04-22T03:43:18.967Z,100884.56
2023-04-22T03:46:33.553Z,100882.06
2023-04-22T03:49:58.498Z,100871.41
2023-04-22T03:53:02.969Z,100861.06
2023-04-22T03:56:07.149Z,100884.56
2023-04-22T03:59:15.629Z,100883.81
2023-04-22T04:02:20.373Z,100889.91
2023-04-22T04:05:25.329Z,100899.09
2023-04-22T04:08:30.312Z,100892.88
2023-04-22T04:11:37.016Z,100886.78
2023-04-22T04:14:42.001Z,100883.38
2023-04-22T04:17:49.248Z,100894.78
2023-04-22T04:20:57.262Z,100870.88
2023-04-22T04:24:04.962Z,100885.06
2023-04-22T04:27:13.426Z,100888.16
2023-04-22T04:30:26.453Z,100854.00
2023-04-22T04:33:33.668Z,100863.81
2023-04-22T04:36:40.705Z,100835.91
2023-04-22T04:39:52.088Z,100871.03
2023-04-22T04:43:00.007Z,100866.56
2023-04-22T04:46:10.529Z,100869.59
2023-04-22T04:49:15.870Z,100860.25
2023-04-22T04:52:30.065Z,100849.97
2023-04-22T04:55:35.558Z,100854.22
2023-04-22T04:58:44.878Z,100870.03
2023-04-22T05:02:04.453Z,100860.59
2023-04-22T05:05:13.524Z,100868.69
2023-04-22T05:08:20.440Z,100868.91
2023-04-22T05:11:27.490Z,100852.13
2023-04-22T05:14:33.256Z,100855.41
2023-04-22T05:17:37.370Z,100829.84
2023-04-22T05:20:41.897Z,100860.06
2023-04-22T05:23:47.739Z,100871.16
2023-04-22T05:26:53.581Z,100859.75
2023-04-22T05:29:58.701Z,100870.84
2023-04-22T05:33:11.145Z,100876.66
2023-04-22T05:36:17.544Z,100872.88
2023-04-22T05:39:24.417Z,100872.06
2023-04-22T05:42:29.242Z,100867.91
2023-04-22T05:45:33.854Z,100857.34
2023-04-22T05:48:41.457Z,100878.06
2023-04-22T05:51:55.499Z,100886.47
2023-04-22T05:55:04.714Z,100876.91
2023-04-22T05:58:09.690Z,100869.50
2023-04-22T06:01:26.085Z,100870.56
2023-04-22T06:04:43.810Z,100883.97
2023-04-22T06:07:48.674Z,100847.44
2023-04-22T06:10:53.236Z,100890.59
2023-04-22T06:13:58.527Z,100911.16
2023-04-22T06:17:03.503Z,100921.94
2023-04-22T06:20:08.428Z,100922.91
2023-04-22T06:23:12.763Z,100909.53
2023-04-22T06:26:17.403Z,100929.66
2023-04-22T06:29:24.809Z,100915.38
2023-04-22T06:32:30.691Z,100915.22
2023-04-22T06:35:35.342Z,100913.13
2023-04-22T06:38:39.918Z,100901.16
2023-04-22T06:42:16.432Z,100915.72
2023-04-22T06:45:46.581Z,100912.34
2023-04-22T06:49:09.582Z,100915.00
2023-04-22T06:52:39.597Z,100910.38
2023-04-22T06:55:44.610Z,100907.13
2023-04-22T06:58:49.192Z,100907.19
2023-04-22T07:01:53.861Z,100909.59
2023-04-22T07:04:58.622Z,100908.50
2023-04-22T07:08:04.395Z,100913.34
2023-04-22T07:11:08.618Z,100917.13
2023-04-22T07:14:34.892Z,100896.53
2023-04-22T07:17:39.506Z,100920.97
2023-04-22T07:20:43.990Z,100915.25
2023-04-22T07:23:48.532Z,100928.53
2023-04-22T07:26:53.029Z,100927.56
2023-04-22T07:30:00.541Z,100874.91
2023-04-22T07:33:05.878Z,100934.31
2023-04-22T07:36:10.539Z,100918.34
2023-04-22T07:39:15.173Z,100899.50
2023-04-22T07:42:19.847Z,100920.59
2023-04-22T07:45:24.409Z,100897.63
2023-04-22T07:48:28.758Z,100923.88
2023-04-22T07:51:33.230Z,100922.34
2023-04-22T07:54:37.768Z,100919.34
2023-04-22T07:57:42.437Z,100919.91
2023-04-22T08:00:47.065Z,100929.91
2023-04-22T08:03:52.085Z,100901.16
2023-04-22T08:06:58.190Z,100919.59
2023-04-22T08:10:02.738Z,100928.19
2023-04-22T08:13:07.527Z,100925.38
2023-04-22T08:16:12.023Z,100922.31
2023-04-22T08:19:16.552Z,100918.69
2023-04-22T08:22:21.028Z,100915.63
2023-04-22T08:25:25.590Z,100896.50
2023-04-22T08:28:30.416Z,100907.91
2023-04-22T08:31:35.906Z,100881.00
2023-04-22T08:34:40.909Z,100879.44
2023-04-22T08:37:45.636Z,100908.47
2023-04-22T08:40:51.139Z,100927.88
2023-04-22T08:43:55.418Z,100887.69
2023-04-22T08:47:02.901Z,100922.88
2023-04-22T08:50:10.526Z,100921.31
2023-04-22T08:53:15.514Z,100926.50
2023-04-22T08:56:20.247Z,100919.44
2023-04-22T08:59:24.766Z,100931.69
2023-04-22T09:02:30.568Z,100926.47
2023-04-22T09:05:37.668Z,100930.84
2023-04-22T09:08:41.776Z,100868.41
2023-04-22T09:11:46.055Z,100923.75
2023-04-22T09:14:50.768Z,100936.03
2023-04-22T09:17:57.606Z,100944.03
2023-04-22T09:21:02.161Z,100875.69
2023-04-22T09:24:10.799Z,100944.06
2023-04-22T09:27:17.873Z,100961.97
2023-04-22T09:30:40.297Z,100947.19
2023-04-22T09:33:50.605Z,100955.91
2023-04-22T09:36:55.717Z,100958.78
2023-04-22T09:40:00.566Z,100966.66
2023-04-22T09:43:07.689Z,100951.88
2023-04-22T09:46:12.982Z,100969.53
2023-04-22T09:49:19.525Z,100968.72
2023-04-22T09:52:25.991Z,100973.91
2023-04-22T09:55:34.666Z,100974.06
2023-04-22T09:58:44.324Z,100978.53
2023-04-22T10:01:49.108Z,100978.53
2023-04-22T10:04:53.586Z,100980.25
2023-04-22T10:07:58.609Z,100971.53
2023-04-22T10:11:03.238Z,100982.09
2023-04-22T10:14:07.743Z,100990.84
2023-04-22T10:17:14.615Z,100997.88
2023-04-22T10:20:21.928Z,100999.53
2023-04-22T10:23:26.785Z,100989.03
2023-04-22T10:26:51.154Z,101003.28
2023-04-22T10:29:58.520Z,100996.25
2023-04-22T10:33:33.730Z,101003.28
2023-04-22T10:36:59.727Z,101017.38
2023-04-22T10:40:13.084Z,100998.03
2023-04-22T10:43:22.461Z,100983.97
2023-04-22T10:46:38.197Z,101007.66
2023-04-22T10:49:45.362Z,101000.66
2023-04-22T10:52:52.083Z,101005.06
2023-04-22T10:55:57.599Z,101016.50
2023-04-22T10:59:16.464Z,101016.50
2023-04-22T11:02:22.063Z,101012.09
2023-04-22T11:05:28.718Z,101008.56
2023-04-22T11:08:33.163Z,101010.34
2023-04-22T11:11:37.820Z,101011.22
2023-04-22T11:14:43.140Z,101006.81
2023-04-22T11:17:49.609Z,101015.63
2023-04-22T11:20:55.209Z,101017.38
2023-04-22T11:24:06.977Z,101018.28
2023-04-22T11:27:12.197Z,100989.22
2023-04-22T11:30:17.233Z,101035.84
2023-04-22T11:33:22.158Z,101027.88
2023-04-22T11:36:26.416Z,101048.13
2023-04-22T11:39:46.578Z,101049.91
2023-04-22T11:43:03.023Z,101029.66
2023-04-22T11:46:09.681Z,101059.59
2023-04-22T11:49:19.052Z,101055.19
2023-04-22T11:52:23.622Z,101057.81
2023-04-22T11:55:35.527Z,101049.03
2023-04-22T11:58:42.628Z,101045.50
2023-04-22T12:01:48.768Z,101041.13
2023-04-22T12:04:53.238Z,101036.72
2023-04-22T12:07:58.511Z,101041.97
2023-04-22T12:11:05.872Z,101037.56
2023-04-22T12:14:10.175Z,100999.78
2023-04-22T12:17:15.774Z,101041.97
2023-04-22T12:20:21.450Z,101040.22
2023-04-22T12:23:26.879Z,101045.50
2023-04-22T12:26:31.545Z,101045.47
2023-04-22T12:29:36.558Z,101033.16
2023-04-22T12:32:40.860Z,101044.59
2023-04-22T12:35:47.896Z,101042.84
2023-04-22T12:38:52.451Z,101042.84
2023-04-22T12:41:58.627Z,101012.06
2023-04-22T12:45:04.072Z,101041.97
2023-04-22T12:48:11.786Z,101040.16
2023-04-22T12:51:16.276Z,101030.47
2023-04-22T12:54:21.849Z,101030.47
2023-04-22T12:57:27.069Z,101038.38
2023-04-22T13:00:32.110Z,101033.97
2023-04-22T13:03:36.946Z,101022.50
2023-04-22T13:06:44.203Z,101033.88
2023-04-22T13:09:49.244Z,101037.38
2023-04-22T13:12:56.706Z,101030.31
2023-04-22T13:16:04.527Z,101016.22
2023-04-22T13:19:08.822Z,101017.03
2023-04-22T13:22:12.782Z,101018.81
2023-04-22T13:25:17.184Z,101025.88
2023-04-22T13:28:21.651Z,101021.50
2023-04-22T13:31:26.181Z,100992.38
2023-04-22T13:34:30.897Z,101025.78
2023-04-22T13:37:35.616Z,101007.19
2023-04-22T13:40:39.712Z,100988.75
2023-04-22T13:43:44.048Z,101017.69
2023-04-22T13:46:48.547Z,101020.25
2023-04-22T13:49:53.553Z,101006.13
2023-04-22T13:52:59.953Z,101021.84
2023-04-22T13:56:04.360Z,101021.03
2023-04-22T13:59:09.188Z,100992.66
2023-04-22T14:02:13.731Z,101010.25
2023-04-22T14:05:18.342Z,101019.19
2023-04-22T14:08:22.754Z,100960.22
2023-04-22T14:11:27.164Z,101010.38
2023-04-22T14:14:31.766Z,101019.13
2023-04-22T14:17:36.223Z,101020.97
2023-04-22T14:20:40.170Z,101013.84
2023-04-22T14:23:44.658Z,101018.22
2023-04-22T14:26:49.293Z,101011.16
2023-04-22T14:29:54.121Z,101016.34
2023-04-22T14:32:59.005Z,101014.53
2023-04-22T14:36:03.074Z,101015.28
2023-04-22T14:39:07.723Z,101015.34
2023-04-22T14:42:12.327Z,101008.31
2023-04-22T14:45:41.569Z,101004.69
2023-04-22T14:48:45.635Z,100987.13
2023-04-22T14:51:50.464Z,100991.50
2023-04-22T14:54:54.462Z,101018.94
2023-04-22T14:57:59.428Z,101024.13
2023-04-22T15:01:04.704Z,100994.25
2023-04-22T15:04:13.665Z,101017.13
2023-04-22T15:07:18.164Z,100992.47
2023-04-22T15:10:22.775Z,100993.44
2023-04-22T15:13:27.169Z,101019.00
2023-04-22T15:16:31.952Z,100952.09
2023-04-22T15:19:36.775Z,101008.34
2023-04-22T15:22:44.355Z,101014.31
2023-04-22T15:25:48.371Z,101000.19
2023-04-22T15:28:52.822Z,101011.63
2023-04-22T15:31:58.010Z,101023.72
2023-04-22T15:35:02.965Z,100997.28
2023-04-22T15:38:07.528Z,100970.94
2023-04-22T15:41:12.641Z,101020.16
2023-04-22T15:44:17.572Z,101002.56
2023-04-22T15:47:21.487Z,101015.09
2023-04-22T15:50:26.571Z,101030.69
2023-04-22T15:53:34.054Z,101000.72
2023-04-22T15:56:38.041Z,100961.25
2023-04-22T15:59:42.653Z,101009.66
2023-04-22T16:02:55.862Z,101023.75
2023-04-22T16:06:00.090Z,100998.34
2023-04-22T16:09:04.448Z,101019.75
2023-04-22T16:12:08.737Z,101024.91
2023-04-22T16:15:12.714Z,101023.19
2023-04-22T16:18:17.103Z,101022.13
2023-04-22T16:21:21.784Z,101014.28
2023-04-22T16:24:26.273Z,101011.78
2023-04-22T16:27:31.404Z,101012.59
2023-04-22T16:30:36.048Z,100995.03
2023-04-22T16:33:40.865Z,101001.06
2023-04-22T16:36:45.251Z,101004.63
2023-04-22T16:39:49.631Z,100984.28
2023-04-22T16:42:54.851Z,101008.09
2023-04-22T16:45:59.405Z,100988.59
2023-04-22T16:49:03.381Z,101008.13
2023-04-22T16:52:07.493Z,101006.34
2023-04-22T16:55:11.942Z,101011.44
2023-04-22T16:58:16.380Z,101007.88
2023-04-22T17:01:21.190Z,101010.34
2023-04-22T17:04:25.737Z,101011.16
2023-04-22T17:07:30.152Z,101015.56
2023-04-22T17:10:35.702Z,101005.03
2023-04-22T17:13:39.999Z,101006.00
2023-04-22T17:16:44.563Z,101011.19
2023-04-22T17:19:48.952Z,100957.56
2023-04-22T17:22:53.441Z,101008.53
2023-04-22T17:25:57.757Z,100946.78
2023-04-22T17:29:02.127Z,101005.63
2023-04-22T17:32:06.405Z,101008.28
2023-04-22T17:35:10.759Z,100999.63
2023-04-22T17:38:15.365Z,101001.28
2023-04-22T17:41:19.775Z,101001.16
2023-04-22T17:44:24.146Z,101002.09
2023-04-22T17:47:28.824Z,100997.00
2023-04-22T17:50:32.856Z,100997.03
2023-04-22T17:53:38.390Z,101000.66
2023-04-22T17:56:42.769Z,101005.94
2023-04-22T17:59:46.631Z,101005.03
2023-04-22T18:02:51.026Z,100984.75
2023-04-22T18:05:55.652Z,101007.00
2023-04-22T18:08:59.944Z,101010.28
2023-04-22T18:12:04.467Z,101012.03
2023-04-22T18:15:09.256Z,101008.56
2023-04-22T18:18:15.578Z,101011.06
2023-04-22T18:21:23.020Z,101004.97
2023-04-22T18:24:27.435Z,101016.44
2023-04-22T18:27:32.331Z,101017.38
2023-04-22T18:30:36.717Z,101019.28
2023-04-22T18:33:41.577Z,100997.19
2023-04-22T18:36:45.945Z,101013.03
2023-04-22T18:39:50.279Z,101015.75
2023-04-22T18:42:54.250Z,101020.81
2023-04-22T18:45:58.788Z,101016.47
2023-04-22T18:49:03.255Z,101003.97
2023-04-22T18:52:07.680Z,101014.69
2023-04-22T18:55:12.174Z,100978.59
2023-04-22T18:58:17.003Z,101005.00
2023-04-22T19:01:21.436Z,100988.19
2023-04-22T19:04:25.485Z,101011.28
2023-04-22T19:07:29.552Z,101010.50
2023-04-22T19:10:33.817Z,100999.22
2023-04-22T19:13:38.062Z,101014.22
2023-04-22T19:16:42.479Z,100994.03
2023-04-22T19:19:47.380Z,100990.53
2023-04-22T19:22:51.922Z,101010.78
2023-04-22T19:25:56.813Z,101009.81
2023-04-22T19:29:01.241Z,101028.22
2023-04-22T19:32:05.965Z,101001.06
2023-04-22T19:35:16.525Z,101004.63
2023-04-22T19:38:23.138Z,101006.50
2023-04-22T19:41:27.220Z,101013.44
2023-04-22T19:44:31.774Z,101010.59
2023-04-22T19:47:37.382Z,101014.22
2023-04-22T19:50:45.300Z,101031.88
2023-04-22T19:53:50.562Z,101026.75
2023-04-22T19:56:55.803Z,101026.78
2023-04-22T20:00:00.528Z,101007.31
2023-04-22T20:03:08.336Z,100955.44
2023-04-22T20:06:16.713Z,101017.88
2023-04-22T20:09:22.488Z,101010.81
2023-04-22T20:12:29.464Z,101041.19
2023-04-22T20:15:34.052Z,101034.25
2023-04-22T20:18:38.666Z,101042.28
2023-04-22T20:21:44.274Z,101042.13
2023-04-22T20:24:51.729Z,101035.88
2023-04-22T20:27:57.546Z,101021.66
2023-04-22T20:31:02.513Z,101036.44
2023-04-22T20:34:07.005Z,101028.47
2023-04-22T20:37:13.896Z,101022.53
2023-04-22T20:40:19.526Z,101039.19
2023-04-22T20:43:24.398Z,101056.06
2023-04-22T20:46:29.172Z,101031.34
2023-04-22T20:49:33.738Z,101036.03
2023-04-22T20:52:38.367Z,101028.16
2023-04-22T20:55:43.000Z,101046.91
2023-04-22T20:58:47.516Z,101044.03
2023-04-22T21:01:53.404Z,101039.38
2023-04-22T21:04:59.588Z,101059.50
2023-04-22T21:08:08.082Z,101050.53
2023-04-22T21:11:12.668Z,101060.88
2023-04-22T21:14:19.254Z,101053.09
2023-04-22T21:17:32.454Z,101048.84
2023-04-22T21:20:46.004Z,101075.06
2023-04-22T21:23:52.590Z,101062.63
2023-04-22T21:26:57.605Z,101059.44
2023-04-22T21:30:02.916Z,101088.00
2023-04-22T21:33:09.436Z,101084.81
2023-04-22T21:36:13.866Z,101070.78
2023-04-22T21:39:18.260Z,101086.22
2023-04-22T21:42:22.792Z,101086.63
2023-04-22T21:45:31.650Z,101074.19
2023-04-22T21:48:35.938Z,101081.72
2023-04-22T21:51:39.979Z,101078.53
2023-04-22T21:54:45.005Z,101105.56
2023-04-22T21:57:50.171Z,101088.78
2023-04-22T22:00:54.764Z,101109.94
2023-04-22T22:03:59.233Z,101089.00
2023-04-22T22:07:03.721Z,101089.19
2023-04-22T22:10:16.820Z,101070.88
2023-04-22T22:13:20.786Z,101104.72
2023-04-22T22:16:25.572Z,101090.94
2023-04-22T22:19:31.613Z,101080.41
2023-04-22T22:22:36.204Z,101099.88
2023-04-22T22:25:40.623Z,101100.16
2023-04-22T22:28:45.156Z,101085.28
2023-04-22T22:31:49.990Z,101072.88
2023-04-22T22:34:54.628Z,101067.63
2023-04-22T22:37:58.626Z,101075.44
2023-04-22T22:41:02.688Z,101081.50
2023-04-22T22:44:07.054Z,101091.22
2023-04-22T22:47:12.180Z,101097.31
2023-04-22T22:50:16.582Z,101099.97
2023-04-22T22:53:21.036Z,101094.78
2023-04-22T22:56:25.659Z,101072.34
2023-04-22T22:59:30.208Z,101091.84
2023-04-22T23:02:35.121Z,101090.00
2023-04-22T23:05:39.690Z,101070.44
2023-04-22T23:08:44.472Z,101086.59
2023-04-22T23:11:52.641Z,101113.91
2023-04-22T23:14:57.059Z,101100.97
2023-04-22T23:18:01.560Z,101065.09
2023-04-22T23:21:07.292Z,101116.81
2023-04-22T23:24:13.191Z,101079.47
2023-04-22T23:27:18.252Z,101114.84
2023-04-22T23:30:23.421Z,101115.34
2023-04-22T23:33:29.605Z,101124.41
2023-04-22T23:36:37.120Z,101112.59
2023-04-22T23:39:42.819Z,101112.00
2023-04-22T23:42:47.179Z,101095.50
2023-04-22T23:45:52.115Z,101111.53
2023-04-22T23:48:58.060Z,101140.13
2023-04-22T23:52:02.657Z,101123.19
2023-04-22T23:55:08.416Z,101114.22
2023-04-22T23:58:12.262Z,101094.13
